Time;durP1;ratioP1;P1;durP2;ratioP2;P2;SDS_P1;SDS_P2;PMS_P1;PMS_P2;Temp;Humidity;BMP_temperature;BMP_pressure;BME280_temperature;BME280_humidity;BME280_pressure;Samples;Min_cycle;Max_cycle;Signal;HPM_P1;HPM_P2
2022/08/18 00:01:39;;;;;;;11.90;7.15;;;23.10;65.40;;;;;;4976061;28;20439;-64
2022/08/18 00:04:06;;;;;;;10.73;7.15;;;23.10;65.40;;;;;;4974589;28;20674;-63
2022/08/18 00:06:32;;;;;;;11.75;7.30;;;23.10;65.40;;;;;;4978467;28;20026;-63
2022/08/18 00:09:00;;;;;;;10.82;7.03;;;23.10;65.40;;;;;;4975666;28;20519;-63
2022/08/18 00:11:26;;;;;;;10.80;6.70;;;23.10;65.30;;;;;;4979119;28;20108;-63
2022/08/18 00:13:52;;;;;;;12.50;7.00;;;23.10;65.40;;;;;;4957638;28;20392;-63
2022/08/18 00:16:17;;;;;;;12.05;6.88;;;23.10;65.30;;;;;;4976038;28;20057;-63
2022/08/18 00:18:43;;;;;;;9.68;6.88;;;23.10;65.30;;;;;;4976244;28;20053;-63
2022/08/18 00:21:09;;;;;;;10.57;6.70;;;23.00;65.30;;;;;;4974187;28;20073;-63
2022/08/18 00:23:34;;;;;;;9.45;6.50;;;23.10;65.20;;;;;;4973833;28;20063;-63
2022/08/18 00:26:02;;;;;;;9.32;6.50;;;23.10;65.20;;;;;;4975330;28;20120;-63
2022/08/18 00:28:28;;;;;;;9.10;6.38;;;23.10;65.20;;;;;;4972699;28;20546;-63
2022/08/18 00:30:54;;;;;;;9.48;6.30;;;23.10;65.20;;;;;;4975850;28;20521;-63
2022/08/18 00:33:20;;;;;;;9.68;7.15;;;23.10;65.30;;;;;;4976547;28;20022;-63
2022/08/18 00:35:46;;;;;;;9.77;6.43;;;23.10;65.20;;;;;;4978275;28;20039;-63
2022/08/18 00:38:11;;;;;;;10.98;6.65;;;23.10;65.20;;;;;;4975971;28;20027;-63
2022/08/18 00:40:47;;;;;;;10.15;6.15;;;23.00;65.20;;;;;;4977353;28;20027;-63
2022/08/18 00:43:38;;;;;;;9.05;6.43;;;23.10;65.20;;;;;;4974829;28;20229;-64
2022/08/18 00:46:10;;;;;;;10.60;6.40;;;23.00;65.10;;;;;;4978709;28;20434;-63
2022/08/18 00:48:37;;;;;;;10.00;6.80;;;23.00;65.10;;;;;;4972865;28;20027;-63
2022/08/18 00:51:35;;;;;;;10.57;6.57;;;23.00;65.10;;;;;;4974591;28;20039;-63
2022/08/18 00:54:20;;;;;;;10.20;6.78;;;23.00;65.10;;;;;;4973813;28;20533;-64
2022/08/18 00:56:55;;;;;;;9.07;6.40;;;23.00;65.10;;;;;;4973812;28;20043;-63
2022/08/18 00:59:23;;;;;;;9.15;6.25;;;23.00;65.10;;;;;;4957654;28;20039;-63
2022/08/18 01:01:49;;;;;;;9.02;6.20;;;23.00;65.10;;;;;;4974430;28;20114;-63
2022/08/18 01:04:27;;;;;;;9.35;6.15;;;23.00;65.10;;;;;;4957627;28;20031;-63
2022/08/18 01:06:59;;;;;;;9.60;6.38;;;23.00;65.10;;;;;;4975775;28;20054;-63
2022/08/18 01:09:25;;;;;;;9.20;6.20;;;23.00;65.10;;;;;;4973591;28;20109;-63
2022/08/18 01:11:50;;;;;;;8.48;6.15;;;23.00;65.00;;;;;;4976610;28;20114;-63
2022/08/18 01:14:17;;;;;;;8.95;6.38;;;23.00;65.10;;;;;;4975826;28;20521;-63
2022/08/18 01:22:16;;;;;;;10.45;6.07;;;22.90;65.00;;;;;;4973070;28;20171;-63
2022/08/18 01:27:30;;;;;;;9.70;6.07;;;23.00;65.10;;;;;;4972054;28;20037;-63
2022/08/18 01:29:57;;;;;;;9.63;6.22;;;23.00;65.00;;;;;;4973321;28;20034;-63
2022/08/18 01:32:23;;;;;;;9.98;5.90;;;23.00;65.10;;;;;;4975025;28;20431;-63
2022/08/18 01:34:50;;;;;;;9.15;6.10;;;23.00;65.10;;;;;;4974928;28;20161;-63
2022/08/18 01:37:20;;;;;;;9.27;6.05;;;23.00;65.10;;;;;;4973248;28;20122;-63
2022/08/18 01:39:46;;;;;;;9.52;5.93;;;22.90;65.10;;;;;;4972001;28;20027;-63
2022/08/18 01:42:15;;;;;;;10.15;6.50;;;22.90;65.00;;;;;;4974065;28;20062;-63
2022/08/18 01:44:41;;;;;;;9.55;6.20;;;22.90;65.00;;;;;;4976574;28;20052;-63
2022/08/18 01:47:09;;;;;;;9.27;5.90;;;22.90;65.00;;;;;;4975695;28;20026;-63
2022/08/18 01:49:35;;;;;;;9.82;5.97;;;22.90;65.10;;;;;;4970826;28;20039;-63
2022/08/18 01:52:03;;;;;;;9.27;5.60;;;22.90;65.00;;;;;;4974931;28;20034;-63
2022/08/18 01:54:29;;;;;;;8.88;5.97;;;22.90;65.10;;;;;;4976218;28;20672;-63
2022/08/18 01:56:54;;;;;;;10.57;6.25;;;22.90;65.10;;;;;;4977051;28;20037;-63
2022/08/18 01:59:20;;;;;;;8.98;6.10;;;22.90;65.00;;;;;;4972938;28;20088;-63
2022/08/18 02:01:46;;;;;;;10.73;6.00;;;22.90;65.10;;;;;;4975259;28;20037;-63
2022/08/18 02:04:12;;;;;;;10.02;6.10;;;22.90;65.00;;;;;;4974429;28;20038;-63
2022/08/18 02:06:38;;;;;;;8.70;5.93;;;22.90;65.00;;;;;;4967064;28;20479;-63
2022/08/18 02:09:04;;;;;;;10.40;6.43;;;22.90;65.00;;;;;;4972611;28;20049;-63
2022/08/18 02:11:29;;;;;;;8.73;5.57;;;22.90;65.00;;;;;;4972746;28;20023;-63
2022/08/18 02:13:55;;;;;;;8.73;5.90;;;22.90;65.10;;;;;;4977928;28;20148;-63
2022/08/18 02:16:21;;;;;;;9.15;5.90;;;22.90;65.10;;;;;;4973912;28;20525;-63
2022/08/18 02:18:47;;;;;;;8.60;5.80;;;22.90;65.10;;;;;;4974049;28;20483;-63
2022/08/18 02:21:14;;;;;;;7.78;5.68;;;22.90;65.10;;;;;;4972953;28;20047;-63
2022/08/18 02:23:40;;;;;;;9.30;5.68;;;22.90;65.10;;;;;;4971049;28;20038;-63
2022/08/18 02:26:07;;;;;;;8.65;5.78;;;22.90;65.10;;;;;;4971899;28;20039;-63
2022/08/18 02:28:33;;;;;;;8.77;5.68;;;22.90;65.00;;;;;;4975633;28;20034;-63
2022/08/18 02:31:10;;;;;;;7.90;5.57;;;22.90;65.00;;;;;;4972681;28;20034;-63
2022/08/18 02:33:35;;;;;;;8.27;5.57;;;22.90;65.10;;;;;;4972085;28;20045;-63
2022/08/18 02:36:01;;;;;;;8.68;5.50;;;22.90;65.00;;;;;;4973236;28;20042;-63
2022/08/18 02:38:28;;;;;;;10.07;5.82;;;22.90;65.10;;;;;;4975588;28;20018;-63
2022/08/18 02:40:57;;;;;;;8.38;5.60;;;22.90;65.10;;;;;;4973589;28;20031;-63
2022/08/18 02:43:23;;;;;;;8.98;5.68;;;22.80;65.10;;;;;;4973329;28;20118;-63
2022/08/18 02:45:48;;;;;;;8.40;5.45;;;22.90;65.00;;;;;;4974069;28;20105;-63
2022/08/18 02:48:14;;;;;;;9.27;5.80;;;22.90;65.00;;;;;;4979588;28;20026;-63
2022/08/18 02:50:46;;;;;;;7.63;5.43;;;22.80;64.90;;;;;;4975678;28;20487;-63
2022/08/18 02:53:22;;;;;;;8.38;5.68;;;22.90;65.10;;;;;;4976826;28;20035;-63
2022/08/18 02:55:47;;;;;;;9.13;6.07;;;22.80;65.00;;;;;;4976355;28;20066;-63
2022/08/18 02:58:13;;;;;;;7.80;5.50;;;22.90;65.00;;;;;;4977907;28;20057;-64
2022/08/18 03:00:39;;;;;;;8.43;5.60;;;22.80;65.00;;;;;;4977032;28;20031;-63
2022/08/18 03:03:05;;;;;;;8.05;5.32;;;22.80;64.90;;;;;;4975506;28;20117;-63
2022/08/18 03:05:31;;;;;;;8.13;5.22;;;22.80;64.90;;;;;;4976357;28;20469;-63
2022/08/18 03:07:56;;;;;;;7.93;5.07;;;22.80;65.00;;;;;;4978505;28;20030;-63
2022/08/18 03:10:22;;;;;;;8.60;5.90;;;22.80;65.00;;;;;;4975608;28;20105;-63
2022/08/18 03:12:48;;;;;;;8.13;5.25;;;22.80;64.90;;;;;;4972436;28;20093;-63
2022/08/18 03:15:13;;;;;;;8.48;5.43;;;22.80;65.00;;;;;;4981173;28;20081;-63
2022/08/18 03:17:39;;;;;;;8.23;5.85;;;22.80;64.80;;;;;;4977316;28;20025;-63
2022/08/18 03:20:05;;;;;;;9.18;5.65;;;22.80;64.90;;;;;;4978220;28;20124;-64
2022/08/18 03:22:31;;;;;;;9.57;5.93;;;22.80;65.00;;;;;;4978272;28;20046;-63
2022/08/18 03:24:57;;;;;;;8.00;5.57;;;22.80;64.90;;;;;;4975462;28;20027;-63
2022/08/18 03:27:22;;;;;;;8.07;5.28;;;22.80;66.00;;;;;;4977045;28;20093;-63
2022/08/18 03:29:49;;;;;;;7.97;5.22;;;22.80;65.00;;;;;;4978509;28;20023;-64
2022/08/18 03:32:15;;;;;;;8.02;5.18;;;22.80;64.90;;;;;;4977694;28;20035;-63
2022/08/18 03:34:41;;;;;;;7.45;4.97;;;22.80;64.90;;;;;;4974201;28;20058;-63
2022/08/18 03:37:08;;;;;;;8.63;5.68;;;22.80;65.10;;;;;;4978697;28;20088;-63
2022/08/18 03:39:33;;;;;;;7.38;5.10;;;22.80;65.10;;;;;;4977805;28;20082;-63
2022/08/18 03:41:59;;;;;;;7.93;5.10;;;22.80;65.10;;;;;;4975783;28;20034;-63
2022/08/18 03:44:25;;;;;;;10.63;5.25;;;22.80;65.00;;;;;;4974318;28;20035;-63
2022/08/18 03:46:50;;;;;;;8.00;5.50;;;22.80;65.00;;;;;;4979048;28;20034;-64
2022/08/18 03:49:17;;;;;;;10.23;5.20;;;22.80;65.10;;;;;;4975050;28;20503;-64
2022/08/18 03:51:45;;;;;;;7.63;5.10;;;22.80;65.30;;;;;;4971925;28;20027;-63
2022/08/18 03:54:12;;;;;;;8.55;5.20;;;22.80;65.40;;;;;;4969581;28;20130;-64
2022/08/18 03:56:38;;;;;;;8.50;5.82;;;22.80;65.30;;;;;;4973084;28;20054;-64
2022/08/18 03:59:10;;;;;;;8.23;5.22;;;22.80;65.30;;;;;;4973788;28;20023;-64
2022/08/18 04:01:38;;;;;;;8.18;5.15;;;22.80;65.30;;;;;;4975625;28;20078;-63
2022/08/18 04:04:06;;;;;;;9.13;5.28;;;22.80;65.30;;;;;;4979224;28;20439;-64
2022/08/18 04:06:49;;;;;;;8.63;5.18;;;22.70;65.10;;;;;;4970189;28;20031;-64
2022/08/18 04:09:15;;;;;;;7.55;5.00;;;22.80;65.20;;;;;;4975383;28;20110;-64
2022/08/18 04:11:43;;;;;;;8.90;5.05;;;22.70;65.10;;;;;;4968330;28;20038;-63
2022/08/18 04:14:11;;;;;;;7.43;5.13;;;22.80;65.10;;;;;;4967830;28;20035;-63
2022/08/18 04:16:37;;;;;;;7.90;5.32;;;22.70;65.10;;;;;;4969769;28;20130;-64
2022/08/18 04:19:03;;;;;;;8.30;5.35;;;22.70;65.10;;;;;;4970095;28;20450;-64
2022/08/18 04:21:33;;;;;;;7.97;5.25;;;22.80;65.20;;;;;;4981516;28;20068;-63
2022/08/18 04:24:03;;;;;;;7.60;5.00;;;22.70;65.10;;;;;;4978955;28;20413;-64
2022/08/18 04:26:35;;;;;;;7.85;5.18;;;22.70;65.20;;;;;;4978450;28;20086;-63
2022/08/18 04:29:00;;;;;;;7.43;4.95;;;22.70;65.40;;;;;;4981015;28;20038;-63
2022/08/18 04:31:27;;;;;;;8.02;5.40;;;22.70;65.30;;;;;;4971601;28;20034;-63
2022/08/18 04:33:52;;;;;;;7.30;5.13;;;22.70;65.20;;;;;;4968687;28;20031;-63
2022/08/18 04:36:18;;;;;;;7.63;4.80;;;22.70;65.40;;;;;;4968109;28;20093;-64
2022/08/18 04:38:44;;;;;;;7.93;5.00;;;22.70;65.20;;;;;;4971651;28;20121;-63
2022/08/18 04:41:13;;;;;;;7.63;5.10;;;22.70;65.20;;;;;;4975833;28;20050;-64
2022/08/18 04:43:39;;;;;;;8.77;5.15;;;22.70;65.30;;;;;;4979287;28;20376;-64
2022/08/18 04:46:05;;;;;;;7.80;5.18;;;22.70;65.30;;;;;;4975904;28;20090;-64
2022/08/18 04:48:32;;;;;;;7.18;4.90;;;22.70;66.40;;;;;;4971505;28;20570;-64
2022/08/18 04:51:12;;;;;;;8.93;5.10;;;22.70;65.40;;;;;;4969874;28;20049;-64
2022/08/18 04:53:44;;;;;;;8.93;5.20;;;22.70;65.40;;;;;;4971697;28;20054;-63
2022/08/18 04:56:32;;;;;;;7.43;4.82;;;22.70;65.30;;;;;;4967587;28;20049;-64
2022/08/18 04:59:07;;;;;;;8.13;5.25;;;22.70;65.20;;;;;;4971624;28;20037;-64
2022/08/18 05:01:41;;;;;;;7.47;4.90;;;22.70;65.30;;;;;;4968363;28;20023;-64
2022/08/18 05:04:07;;;;;;;8.93;5.20;;;22.70;65.40;;;;;;4963311;28;20110;-64
2022/08/18 05:06:34;;;;;;;7.78;5.35;;;22.70;65.40;;;;;;4970482;28;20467;-64
2022/08/18 05:09:02;;;;;;;8.40;5.43;;;22.70;65.30;;;;;;4969420;28;20065;-63
2022/08/18 05:11:28;;;;;;;8.18;5.07;;;22.70;65.40;;;;;;4970786;28;20054;-64
2022/08/18 05:13:59;;;;;;;7.38;4.70;;;22.70;65.50;;;;;;4968687;28;20491;-64
2022/08/18 05:16:25;;;;;;;8.45;5.10;;;22.70;65.40;;;;;;4969981;28;20407;-63
2022/08/18 05:18:53;;;;;;;7.63;4.93;;;22.70;65.40;;;;;;4967560;28;20055;-64
2022/08/18 05:21:20;;;;;;;8.77;5.60;;;22.70;65.50;;;;;;4987175;28;20053;-64
2022/08/18 05:23:47;;;;;;;7.20;5.10;;;22.70;65.50;;;;;;4967674;28;20085;-63
2022/08/18 05:26:13;;;;;;;9.13;5.15;;;22.70;65.50;;;;;;4970062;28;20025;-63
2022/08/18 05:28:42;;;;;;;7.50;4.80;;;22.70;65.50;;;;;;4968371;28;20069;-64
2022/08/18 05:31:15;;;;;;;8.70;5.10;;;22.70;65.40;;;;;;4966217;28;20053;-64
2022/08/18 05:33:40;;;;;;;7.97;4.90;;;22.70;65.40;;;;;;4968069;28;20015;-64
2022/08/18 05:36:24;;;;;;;7.72;4.90;;;22.70;65.50;;;;;;4965460;28;20089;-64
2022/08/18 05:39:38;;;;;;;8.82;4.82;;;22.70;65.50;;;;;;4965428;28;20130;-64
2022/08/18 05:42:08;;;;;;;7.07;4.90;;;22.70;65.50;;;;;;4970445;28;20050;-63
2022/08/18 05:44:39;;;;;;;6.82;4.78;;;22.70;65.60;;;;;;4967738;28;20086;-64
2022/08/18 05:47:13;;;;;;;7.40;4.80;;;22.60;65.50;;;;;;4965663;28;20474;-63
2022/08/18 05:49:40;;;;;;;8.30;4.80;;;22.70;65.60;;;;;;4966633;28;20098;-64
2022/08/18 05:52:35;;;;;;;8.43;5.20;;;22.60;65.50;;;;;;4967182;28;20574;-64
2022/08/18 05:58:04;;;;;;;7.72;5.13;;;22.60;65.60;;;;;;4953942;28;20050;-63
2022/08/18 06:00:30;;;;;;;7.78;4.65;;;22.60;65.50;;;;;;4951875;28;20490;-64
2022/08/18 06:03:35;;;;;;;7.07;4.63;;;22.60;65.60;;;;;;4954674;28;20071;-64
2022/08/18 06:06:02;;;;;;;7.45;4.95;;;22.60;65.60;;;;;;4959389;28;20043;-64
2022/08/18 06:08:31;;;;;;;7.25;4.60;;;22.60;65.50;;;;;;4941652;28;20058;-64
2022/08/18 06:10:57;;;;;;;7.13;4.75;;;22.60;65.60;;;;;;4935432;28;20496;-64
2022/08/18 06:13:22;;;;;;;8.52;4.72;;;22.60;65.60;;;;;;4952211;28;20086;-64
2022/08/18 06:16:05;;;;;;;8.25;4.80;;;22.60;65.60;;;;;;4975232;28;20429;-63
2022/08/18 06:18:55;;;;;;;7.70;4.63;;;22.60;65.50;;;;;;4968450;28;20263;-63
2022/08/18 06:21:40;;;;;;;7.60;5.00;;;22.60;65.50;;;;;;4970174;28;20053;-64
2022/08/18 06:24:18;;;;;;;7.30;4.70;;;22.60;65.50;;;;;;4974586;28;20057;-63
2022/08/18 06:26:55;;;;;;;7.20;4.78;;;22.60;65.50;;;;;;4978471;28;20034;-63
2022/08/18 06:29:36;;;;;;;7.55;4.80;;;22.60;65.50;;;;;;4976219;28;20027;-64
2022/08/18 06:32:28;;;;;;;8.48;4.78;;;22.60;65.60;;;;;;4973152;28;20046;-64
2022/08/18 06:35:17;;;;;;;6.68;4.60;;;22.60;65.60;;;;;;4976327;28;20166;-64
2022/08/18 06:41:09;;;;;;;7.30;4.97;;;22.60;65.60;;;;;;4974951;28;20622;-64
2022/08/18 06:43:36;;;;;;;7.10;4.72;;;22.60;65.60;;;;;;4960875;28;20042;-63
2022/08/18 06:46:07;;;;;;;7.28;4.60;;;22.60;65.60;;;;;;4964791;28;20085;-64
2022/08/18 06:48:55;;;;;;;7.72;4.70;;;22.60;65.60;;;;;;4963822;28;20023;-63
2022/08/18 06:51:22;;;;;;;7.53;5.03;;;22.60;65.50;;;;;;4972987;28;20503;-64
2022/08/18 06:53:56;;;;;;;6.88;4.80;;;22.60;65.30;;;;;;4980932;28;20026;-64
2022/08/18 06:56:32;;;;;;;6.72;4.45;;;22.60;65.50;;;;;;4979638;28;20067;-64
2022/08/18 06:59:22;;;;;;;7.95;4.80;;;22.60;65.60;;;;;;4978120;28;20034;-63
2022/08/18 07:01:52;;;;;;;6.90;4.70;;;22.60;65.40;;;;;;4974082;28;20566;-63
2022/08/18 07:04:31;;;;;;;6.90;4.57;;;22.60;65.50;;;;;;4977860;28;20076;-64
2022/08/18 07:06:57;;;;;;;7.50;4.72;;;22.60;65.60;;;;;;4977083;28;20088;-64
2022/08/18 07:09:24;;;;;;;7.25;4.38;;;22.60;65.60;;;;;;4980947;28;20038;-64
2022/08/18 07:12:06;;;;;;;6.75;4.40;;;22.50;65.30;;;;;;4974879;28;20035;-64
2022/08/18 07:14:35;;;;;;;6.97;4.70;;;22.60;65.60;;;;;;4981098;28;20030;-63
2022/08/18 07:17:13;;;;;;;6.82;4.55;;;22.60;65.40;;;;;;4974153;28;20034;-63
2022/08/18 07:19:40;;;;;;;6.72;4.40;;;22.50;65.30;;;;;;4978620;28;20049;-63
2022/08/18 07:22:24;;;;;;;6.75;4.60;;;22.60;65.60;;;;;;4982008;28;20070;-64
2022/08/18 07:24:53;;;;;;;7.00;4.30;;;22.60;65.60;;;;;;4974157;28;20034;-64
2022/08/18 07:27:38;;;;;;;6.90;4.38;;;22.50;65.50;;;;;;4974133;28;20027;-64
2022/08/18 07:30:26;;;;;;;6.30;4.07;;;22.50;65.10;;;;;;4979625;28;20035;-64
2022/08/18 07:33:15;;;;;;;7.10;4.53;;;22.50;65.50;;;;;;4974913;28;20039;-64
2022/08/18 07:35:55;;;;;;;6.80;4.45;;;22.50;65.30;;;;;;4973917;28;20530;-63
2022/08/18 07:38:34;;;;;;;7.15;4.40;;;22.50;65.40;;;;;;4940893;28;20042;-63
2022/08/18 07:41:21;;;;;;;7.43;4.30;;;22.50;65.30;;;;;;4957273;28;20031;-63
2022/08/18 07:44:11;;;;;;;8.15;4.50;;;22.50;65.50;;;;;;4959009;28;20027;-64
2022/08/18 07:46:58;;;;;;;6.38;4.40;;;22.50;65.50;;;;;;4970106;28;20142;-64
2022/08/18 07:49:25;;;;;;;6.05;4.15;;;22.50;65.30;;;;;;4952675;28;20103;-64
2022/08/18 07:51:55;;;;;;;6.75;4.57;;;22.50;65.30;;;;;;4956415;28;20034;-64
2022/08/18 07:54:36;;;;;;;7.10;4.45;;;22.50;65.50;;;;;;4956017;28;20578;-64
2022/08/18 07:57:23;;;;;;;6.43;4.18;;;22.50;65.40;;;;;;4974488;28;20065;-64
2022/08/18 08:00:13;;;;;;;6.15;4.10;;;22.50;65.60;;;;;;4953186;28;20175;-64
2022/08/18 08:02:59;;;;;;;7.25;4.10;;;22.50;65.50;;;;;;4972257;28;20027;-64
2022/08/18 08:05:37;;;;;;;6.82;4.40;;;22.50;65.50;;;;;;4975519;28;20038;-64
2022/08/18 08:08:30;;;;;;;7.05;4.32;;;22.50;65.40;;;;;;4973170;28;20035;-64
2022/08/18 08:11:08;;;;;;;7.30;4.30;;;22.50;66.30;;;;;;4957252;28;20104;-63
2022/08/18 08:13:41;;;;;;;6.93;4.10;;;22.50;65.40;;;;;;4973998;28;20026;-64
2022/08/18 08:16:16;;;;;;;6.38;3.95;;;22.50;65.40;;;;;;4976223;28;20062;-63
2022/08/18 08:18:53;;;;;;;6.57;4.22;;;22.50;65.20;;;;;;4954035;28;20019;-64
2022/08/18 08:21:20;;;;;;;5.97;4.20;;;22.50;65.40;;;;;;4971600;28;20050;-64
2022/08/18 08:23:58;;;;;;;6.07;4.00;;;22.50;65.50;;;;;;4948520;28;20034;-63
2022/08/18 08:27:02;;;;;;;7.10;4.00;;;22.50;65.70;;;;;;4973329;28;20023;-63
2022/08/18 08:29:47;;;;;;;6.55;4.20;;;22.50;65.40;;;;;;4978167;28;20059;-64
2022/08/18 08:32:18;;;;;;;7.22;4.40;;;22.50;65.30;;;;;;4974424;28;20034;-64
2022/08/18 08:34:51;;;;;;;6.20;3.92;;;22.50;65.40;;;;;;4978025;28;20393;-64
2022/08/18 08:37:36;;;;;;;7.10;3.92;;;22.50;65.50;;;;;;4970580;28;20096;-63
2022/08/18 08:40:19;;;;;;;6.88;4.28;;;22.50;65.60;;;;;;4972619;28;20506;-63
2022/08/18 08:43:03;;;;;;;5.65;3.53;;;22.50;65.50;;;;;;4970988;28;20096;-63
2022/08/18 08:45:29;;;;;;;5.82;3.78;;;22.50;65.70;;;;;;4966923;28;20069;-64
2022/08/18 08:48:06;;;;;;;8.65;4.15;;;22.50;65.60;;;;;;4969616;28;20055;-64
2022/08/18 08:50:55;;;;;;;5.65;3.65;;;22.50;65.80;;;;;;4951252;28;20121;-63
2022/08/18 08:53:29;;;;;;;6.47;3.75;;;22.50;65.40;;;;;;4957287;28;20057;-63
2022/08/18 08:55:59;;;;;;;9.07;4.05;;;22.50;65.50;;;;;;4968124;28;20694;-64
2022/08/18 08:58:27;;;;;;;6.22;3.70;;;22.50;65.80;;;;;;4952153;28;20026;-64
2022/08/18 09:00:54;;;;;;;6.50;3.60;;;22.60;65.60;;;;;;4968459;28;20025;-64
2022/08/18 09:03:42;;;;;;;5.63;3.55;;;22.60;65.50;;;;;;4950602;28;20491;-63
2022/08/18 09:06:18;;;;;;;5.55;3.22;;;22.60;65.80;;;;;;4947690;28;20134;-64
2022/08/18 09:09:00;;;;;;;6.40;3.85;;;22.60;66.00;;;;;;4970038;28;20030;-63
2022/08/18 09:11:47;;;;;;;5.80;3.50;;;22.60;66.30;;;;;;4966869;28;20570;-64
2022/08/18 09:14:22;;;;;;;7.40;3.53;;;22.70;66.00;;;;;;4967017;28;20023;-63
2022/08/18 09:17:25;;;;;;;8.48;3.83;;;22.70;66.40;;;;;;4965954;28;20506;-64
2022/08/18 09:20:04;;;;;;;7.35;3.92;;;22.80;66.40;;;;;;4966819;28;20391;-63
2022/08/18 09:22:51;;;;;;;7.45;3.80;;;22.70;66.10;;;;;;4966250;28;20177;-64
2022/08/18 09:25:32;;;;;;;8.23;3.80;;;22.70;66.30;;;;;;4962501;28;20034;-65
2022/08/18 09:28:22;;;;;;;8.00;3.90;;;22.70;65.30;;;;;;4964828;28;20030;-65
2022/08/18 09:31:04;;;;;;;14.35;3.72;;;22.70;63.40;;;;;;4964734;28;20034;-64
2022/08/18 09:33:32;;;;;;;8.50;3.40;;;22.60;64.30;;;;;;4965621;28;20121;-64
2022/08/18 09:36:09;;;;;;;7.75;3.40;;;22.60;63.10;;;;;;4966528;28;20041;-62
2022/08/18 09:41:32;;;;;;;7.13;3.30;;;22.60;62.90;;;;;;4967747;28;20069;-62
2022/08/18 09:44:09;;;;;;;7.40;3.72;;;22.70;62.90;;;;;;4971197;28;20156;-62
2022/08/18 09:46:41;;;;;;;8.48;3.35;;;22.60;62.50;;;;;;4971880;28;20025;-63
2022/08/18 09:49:25;;;;;;;8.23;3.42;;;22.70;62.50;;;;;;4968011;28;20034;-61
2022/08/18 09:52:20;;;;;;;10.32;3.78;;;22.70;62.60;;;;;;4967226;28;20720;-62
2022/08/18 09:54:58;;;;;;;9.32;3.47;;;22.60;62.30;;;;;;4967339;28;20665;-62
2022/08/18 09:57:24;;;;;;;9.55;3.70;;;22.70;62.30;;;;;;4970676;28;20105;-63
2022/08/18 09:59:53;;;;;;;17.00;4.15;;;22.70;62.40;;;;;;4969736;28;20030;-62
2022/08/18 10:02:26;;;;;;;8.63;4.00;;;22.70;62.90;;;;;;4970037;28;20030;-62
2022/08/18 10:05:18;;;;;;;9.27;4.40;;;22.70;62.30;;;;;;4970971;28;20058;-62
2022/08/18 10:08:06;;;;;;;10.23;4.30;;;22.70;62.50;;;;;;4972986;28;20023;-62
2022/08/18 10:10:48;;;;;;;10.32;4.90;;;22.70;62.30;;;;;;4968729;28;20030;-62
2022/08/18 10:13:21;;;;;;;14.25;5.65;;;22.80;62.60;;;;;;4974186;28;20034;-62
2022/08/18 10:16:05;;;;;;;11.48;5.30;;;22.80;63.20;;;;;;4968417;28;20093;-62
2022/08/18 10:18:45;;;;;;;12.73;6.50;;;22.80;63.20;;;;;;4968867;28;20034;-62
2022/08/18 10:21:26;;;;;;;10.77;5.50;;;22.80;63.30;;;;;;4967952;28;20041;-62
2022/08/18 10:24:04;;;;;;;10.23;5.25;;;22.80;63.20;;;;;;4973046;28;20572;-62
2022/08/18 10:26:30;;;;;;;10.13;4.88;;;22.80;62.90;;;;;;4975642;28;20603;-62
2022/08/18 10:29:10;;;;;;;11.82;4.63;;;22.80;62.90;;;;;;4973972;28;20035;-62
2022/08/18 10:32:04;;;;;;;10.82;5.03;;;22.80;61.60;;;;;;4973034;28;20126;-62
2022/08/18 10:34:49;;;;;;;11.02;5.28;;;22.80;61.60;;;;;;4965954;28;20023;-62
2022/08/18 10:37:29;;;;;;;11.75;6.47;;;22.80;61.30;;;;;;4967649;28;20507;-62
2022/08/18 10:39:59;;;;;;;13.25;6.22;;;22.80;61.70;;;;;;4964195;28;20177;-62
2022/08/18 10:42:31;;;;;;;11.60;5.10;;;22.80;62.20;;;;;;4967654;28;20474;-61
2022/08/18 10:45:27;;;;;;;13.60;5.60;;;22.80;61.60;;;;;;4966693;28;20042;-61
2022/08/18 10:48:22;;;;;;;13.82;6.75;;;22.80;62.60;;;;;;4966762;28;20521;-61
2022/08/18 10:50:52;;;;;;;13.65;6.72;;;22.80;62.30;;;;;;4969581;28;20738;-61
2022/08/18 10:53:43;;;;;;;12.23;6.60;;;22.80;62.00;;;;;;4966251;28;20035;-61
2022/08/18 10:56:46;;;;;;;13.48;6.25;;;22.80;61.20;;;;;;4968553;28;20071;-61
2022/08/18 10:59:21;;;;;;;10.73;5.35;;;22.90;61.40;;;;;;4970193;28;20039;-61
2022/08/18 11:02:12;;;;;;;10.18;5.57;;;22.90;61.20;;;;;;4964678;28;20388;-61
2022/08/18 11:04:46;;;;;;;12.65;7.10;;;22.90;61.60;;;;;;4965768;28;20118;-61
2022/08/18 11:07:14;;;;;;;12.55;6.40;;;22.90;61.90;;;;;;4965164;28;20089;-61
2022/08/18 11:09:41;;;;;;;11.73;5.40;;;22.80;61.30;;;;;;4968980;28;20038;-61
2022/08/18 11:12:07;;;;;;;11.73;6.07;;;22.80;61.20;;;;;;4971942;28;20035;-61
2022/08/18 11:14:56;;;;;;;13.55;6.63;;;22.90;61.50;;;;;;4973496;28;20038;-61
2022/08/18 11:17:49;;;;;;;11.60;6.28;;;22.80;61.10;;;;;;4967084;28;20114;-61
2022/08/18 11:20:15;;;;;;;9.75;5.10;;;22.90;60.80;;;;;;4969671;28;20558;-61
2022/08/18 11:22:56;;;;;;;15.13;6.60;;;22.90;60.60;;;;;;4972252;28;20101;-61
2022/08/18 11:25:23;;;;;;;15.05;6.18;;;22.90;61.00;;;;;;4968424;28;20033;-61
2022/08/18 11:27:49;;;;;;;16.35;6.40;;;22.90;60.50;;;;;;4970751;28;20089;-60
2022/08/18 11:30:15;;;;;;;17.05;10.80;;;22.90;61.00;;;;;;4969744;28;20507;-61
2022/08/18 11:32:41;;;;;;;15.30;7.93;;;22.90;60.80;;;;;;4970561;28;20033;-61
2022/08/18 11:35:21;;;;;;;15.68;7.13;;;22.90;61.50;;;;;;4951018;28;20037;-60
2022/08/18 11:37:47;;;;;;;18.90;6.93;;;22.90;60.60;;;;;;4972035;28;20375;-60
2022/08/18 11:40:16;;;;;;;16.35;6.45;;;23.00;61.00;;;;;;4973100;28;20066;-60
2022/08/18 11:42:42;;;;;;;11.38;5.95;;;22.90;60.40;;;;;;4974180;28;20686;-60
2022/08/18 11:45:19;;;;;;;12.05;5.75;;;22.90;60.50;;;;;;4954211;28;20066;-60
2022/08/18 11:48:09;;;;;;;13.35;5.82;;;22.90;60.00;;;;;;4969949;28;20061;-60
2022/08/18 11:50:45;;;;;;;11.30;5.07;;;23.00;60.20;;;;;;4975855;28;20608;-60
2022/08/18 11:53:20;;;;;;;10.88;5.47;;;23.00;60.30;;;;;;4973857;28;20053;-60
2022/08/18 11:55:50;;;;;;;10.00;4.90;;;23.10;59.80;;;;;;4971108;28;20053;-60
2022/08/18 11:58:36;;;;;;;10.00;5.60;;;23.10;60.40;;;;;;4973802;28;20103;-60
2022/08/18 12:01:02;;;;;;;12.63;5.32;;;23.10;59.90;;;;;;4972514;28;20038;-60
2022/08/18 12:03:39;;;;;;;13.80;4.85;;;23.20;60.10;;;;;;4971658;28;20630;-60
2022/08/18 12:06:18;;;;;;;11.07;5.07;;;23.10;59.10;;;;;;4975042;28;20106;-60
2022/08/18 12:09:11;;;;;;;12.60;5.30;;;23.20;59.50;;;;;;4958326;28;20047;-60
2022/08/18 12:11:42;;;;;;;11.50;4.95;;;23.20;59.50;;;;;;4972350;28;20517;-59
2022/08/18 12:14:17;;;;;;;10.30;4.40;;;23.20;58.80;;;;;;4972125;28;20026;-59
2022/08/18 12:16:43;;;;;;;15.27;5.00;;;23.20;58.80;;;;;;4975358;28;20458;-59
2022/08/18 12:19:10;;;;;;;11.82;4.40;;;23.20;58.90;;;;;;4973921;28;20081;-60
2022/08/18 12:21:39;;;;;;;10.55;3.88;;;23.30;58.80;;;;;;4978148;28;20487;-60
2022/08/18 12:24:15;;;;;;;10.00;4.38;;;23.30;58.80;;;;;;4974871;28;20034;-58
2022/08/18 12:26:41;;;;;;;10.32;4.00;;;23.30;58.90;;;;;;4971885;28;20093;-58
2022/08/18 12:29:07;;;;;;;9.52;3.90;;;23.30;58.90;;;;;;4973558;28;20435;-58
2022/08/18 12:31:32;;;;;;;11.02;3.70;;;23.30;58.00;;;;;;4973473;28;20038;-58
2022/08/18 12:33:59;;;;;;;13.05;4.10;;;23.30;58.20;;;;;;4975338;28;20027;-59
2022/08/18 12:36:25;;;;;;;10.73;3.38;;;23.30;58.40;;;;;;4973694;28;20403;-60
2022/08/18 12:38:50;;;;;;;11.18;4.05;;;23.30;58.00;;;;;;4970239;28;20031;-60
2022/08/18 12:41:16;;;;;;;10.20;3.75;;;23.40;58.10;;;;;;4969191;28;20045;-60
2022/08/18 12:43:42;;;;;;;9.80;3.55;;;23.40;58.30;;;;;;4972691;28;20019;-58
2022/08/18 12:46:08;;;;;;;11.70;4.15;;;23.40;58.00;;;;;;4972645;28;20027;-60
2022/08/18 12:48:34;;;;;;;9.93;3.80;;;23.40;58.20;;;;;;4951685;28;20622;-60
2022/08/18 12:51:00;;;;;;;10.88;3.30;;;23.40;58.30;;;;;;4956152;28;20575;-61
2022/08/18 12:53:25;;;;;;;9.10;3.63;;;23.40;58.30;;;;;;4972918;28;20018;-62
2022/08/18 12:55:51;;;;;;;9.18;3.38;;;23.40;58.40;;;;;;4971225;28;20097;-61
2022/08/18 12:58:17;;;;;;;13.48;3.63;;;23.50;58.40;;;;;;4975557;28;20660;-61
2022/08/18 13:00:42;;;;;;;11.93;3.65;;;23.40;58.00;;;;;;4977862;28;20022;-61
2022/08/18 13:03:08;;;;;;;11.32;3.70;;;23.40;58.00;;;;;;4974913;28;20049;-61
2022/08/18 13:05:34;;;;;;;10.80;3.45;;;23.50;58.10;;;;;;4975055;28;20065;-61
2022/08/18 13:08:01;;;;;;;11.75;3.75;;;23.60;58.00;;;;;;4974527;28;20031;-61
2022/08/18 13:10:27;;;;;;;13.48;3.72;;;23.60;58.00;;;;;;4974331;28;20045;-61
2022/08/18 13:12:52;;;;;;;14.05;4.00;;;23.60;58.00;;;;;;4972683;28;20038;-61
2022/08/18 13:15:18;;;;;;;10.30;3.42;;;23.60;57.90;;;;;;4974102;28;20137;-61
2022/08/18 13:17:44;;;;;;;13.48;3.83;;;23.70;58.00;;;;;;4976599;28;20106;-61
2022/08/18 13:20:12;;;;;;;8.52;3.42;;;23.70;58.10;;;;;;4972552;28;20038;-61
2022/08/18 13:22:39;;;;;;;13.30;3.42;;;23.70;58.10;;;;;;4974028;28;20614;-61
2022/08/18 13:25:06;;;;;;;12.80;3.80;;;23.70;58.10;;;;;;4978014;28;20394;-61
2022/08/18 13:27:32;;;;;;;13.75;3.55;;;23.70;58.20;;;;;;4974794;28;20030;-61
2022/08/18 13:29:58;;;;;;;10.35;3.53;;;23.70;58.30;;;;;;4978069;28;20460;-61